Time;durP1;ratioP1;P1;durP2;ratioP2;P2;SDS_P1;SDS_P2;PMS_P1;PMS_P2;Temp;Humidity;BMP_temperature;BMP_pressure;BME280_temperature;BME280_humidity;BME280_pressure;Samples;Min_cycle;Max_cycle;Signal;HPM_P1;HPM_P2
2022/11/20 00:01:27;;;;;;;53.50;34.27;;;;;;;13.67;100.00;98767.66;5070948;28;20615;-56
2022/11/20 00:03:55;;;;;;;51.97;33.73;;;;;;;13.65;100.00;98782.56;5071030;28;20200;-57
2022/11/20 00:06:23;;;;;;;47.97;33.60;;;;;;;13.67;100.00;98772.88;5070872;28;20578;-57
2022/11/20 00:08:50;;;;;;;51.43;33.53;;;;;;;13.68;100.00;98766.72;5070799;28;20231;-57
2022/11/20 00:11:19;;;;;;;56.77;37.07;;;;;;;13.64;100.00;98780.88;5070543;28;20208;-57
2022/11/20 00:13:47;;;;;;;53.27;35.17;;;;;;;13.71;100.00;98779.63;5070469;28;20196;-57
2022/11/20 00:16:18;;;;;;;60.97;33.83;;;;;;;13.64;100.00;98774.81;5070567;28;20196;-57
2022/11/20 00:18:45;;;;;;;48.37;33.27;;;;;;;13.58;100.00;98778.56;5070914;28;20681;-54
2022/11/20 00:21:14;;;;;;;52.20;33.70;;;;;;;13.63;100.00;98776.56;5070594;28;20206;-54
2022/11/20 00:23:42;;;;;;;52.67;33.67;;;;;;;13.63;100.00;98766.16;5070642;28;20202;-54
2022/11/20 00:26:11;;;;;;;52.60;33.30;;;;;;;13.63;100.00;98779.19;5070239;28;20203;-54
2022/11/20 00:28:38;;;;;;;58.43;33.97;;;;;;;13.52;100.00;98768.47;5070560;28;20204;-53
2022/11/20 00:31:06;;;;;;;52.43;34.80;;;;;;;13.51;100.00;98766.78;5070613;28;20200;-53
2022/11/20 00:33:35;;;;;;;55.00;35.10;;;;;;;13.39;100.00;98763.06;5070738;28;20665;-54
2022/11/20 00:36:03;;;;;;;51.17;34.60;;;;;;;13.36;100.00;98763.22;5070362;28;20198;-54
2022/11/20 00:38:30;;;;;;;49.47;34.70;;;;;;;13.34;100.00;98777.25;5070323;28;20207;-53
2022/11/20 00:40:58;;;;;;;52.00;33.70;;;;;;;13.35;100.00;98777.16;5070321;28;20214;-54
2022/11/20 00:43:25;;;;;;;52.83;34.53;;;;;;;13.38;100.00;98763.97;5070192;28;20203;-56
2022/11/20 00:45:57;;;;;;;52.50;34.03;;;;;;;13.38;100.00;98765.75;5069690;28;20204;-57
2022/11/20 00:48:24;;;;;;;50.47;33.70;;;;;;;13.46;100.00;98766.19;5070138;28;20676;-57
2022/11/20 00:50:53;;;;;;;49.40;34.47;;;;;;;13.33;100.00;98765.13;5070150;28;20222;-58
2022/11/20 00:53:20;;;;;;;51.03;32.93;;;;;;;13.38;100.00;98786.59;5069900;28;20211;-57
2022/11/20 00:55:54;;;;;;;55.17;35.13;;;;;;;13.29;100.00;98774.03;5070145;28;20191;-58
2022/11/20 00:58:21;;;;;;;52.20;35.80;;;;;;;13.31;100.00;98777.41;5050233;28;20199;-56
2022/11/20 01:00:49;;;;;;;54.67;35.30;;;;;;;13.28;100.00;98770.59;5056200;28;20195;-56
2022/11/20 01:03:16;;;;;;;49.40;33.13;;;;;;;13.37;100.00;98777.09;5069670;28;20207;-57
2022/11/20 01:05:43;;;;;;;48.03;32.77;;;;;;;13.32;100.00;98774.72;5069733;28;20671;-57
2022/11/20 01:08:11;;;;;;;53.17;33.33;;;;;;;13.35;100.00;98765.91;5069867;28;20689;-56
2022/11/20 01:10:38;;;;;;;46.00;31.47;;;;;;;13.36;100.00;98768.44;5069933;28;20192;-56
2022/11/20 01:15:49;;;;;;;52.27;32.40;;;;;;;13.40;100.00;98756.94;5069959;28;20587;-54
2022/11/20 01:18:16;;;;;;;47.30;32.83;;;;;;;13.41;100.00;98765.59;5069756;28;20200;-55
2022/11/20 01:20:43;;;;;;;53.23;33.63;;;;;;;13.38;100.00;98750.94;5070011;28;20218;-53
2022/11/20 01:23:11;;;;;;;45.70;30.87;;;;;;;13.48;100.00;98745.25;5070215;28;20250;-54
2022/11/20 01:25:38;;;;;;;44.83;31.57;;;;;;;13.48;100.00;98748.69;5069862;28;20603;-53
2022/11/20 01:28:05;;;;;;;50.07;32.93;;;;;;;13.51;100.00;98743.34;5069764;28;20238;-54
2022/11/20 01:30:32;;;;;;;48.17;31.70;;;;;;;13.52;100.00;98737.19;5069619;28;20208;-58
2022/11/20 01:32:59;;;;;;;51.57;32.70;;;;;;;13.52;100.00;98742.41;5069640;28;20200;-58
2022/11/20 01:35:26;;;;;;;52.07;32.60;;;;;;;13.56;100.00;98728.28;5069631;28;20204;-56
2022/11/20 01:37:52;;;;;;;56.87;34.97;;;;;;;13.57;100.00;98742.16;5069882;28;20188;-57
2022/11/20 01:40:21;;;;;;;57.10;33.10;;;;;;;13.57;100.00;98729.94;5069669;28;20200;-53
2022/11/20 01:46:04;;;;;;;43.93;31.93;;;;;;;13.59;100.00;98732.47;5052344;28;20203;-53
2022/11/20 01:48:37;;;;;;;50.57;33.07;;;;;;;13.62;100.00;98722.75;5068713;28;20228;-53
2022/11/20 01:51:07;;;;;;;51.17;32.70;;;;;;;13.59;100.00;98712.47;5069161;28;20196;-53
2022/11/20 01:53:37;;;;;;;51.27;33.77;;;;;;;13.64;100.00;98725.28;5069000;28;20230;-54
2022/11/20 01:56:10;;;;;;;54.27;32.07;;;;;;;13.54;100.00;98719.72;5069017;28;20211;-55
2022/11/20 01:58:43;;;;;;;48.57;32.73;;;;;;;13.56;100.00;98707.41;5073077;28;20204;-54
2022/11/20 02:01:10;;;;;;;46.07;32.20;;;;;;;13.59;100.00;98709.84;5073487;28;20192;-54
2022/11/20 02:03:37;;;;;;;45.80;31.70;;;;;;;13.61;100.00;98704.56;5073077;28;20211;-54
2022/11/20 02:06:11;;;;;;;48.20;30.87;;;;;;;13.63;100.00;98718.38;5072765;28;20196;-54
2022/11/20 02:08:39;;;;;;;50.10;30.80;;;;;;;13.66;100.00;98707.75;5072887;28;20239;-53
2022/11/20 02:11:07;;;;;;;47.90;31.73;;;;;;;13.51;100.00;98704.22;5073085;28;20200;-53
2022/11/20 02:13:43;;;;;;;46.73;31.93;;;;;;;13.52;100.00;98695.47;5073219;28;20208;-54
2022/11/20 02:16:12;;;;;;;47.37;31.03;;;;;;;13.49;100.00;98708.69;5073186;28;20200;-53
2022/11/20 02:18:40;;;;;;;48.40;30.20;;;;;;;13.51;100.00;98712.03;5073016;28;20196;-57
2022/11/20 02:21:14;;;;;;;51.83;32.30;;;;;;;13.53;100.00;98697.16;5073110;28;20591;-57
2022/11/20 02:24:04;;;;;;;46.93;31.10;;;;;;;13.55;100.00;98703.13;5073021;28;20210;-57
2022/11/20 02:26:33;;;;;;;43.47;30.87;;;;;;;13.59;100.00;98702.03;5072598;28;20195;-57
2022/11/20 02:29:03;;;;;;;47.43;32.07;;;;;;;13.49;100.00;98685.22;5072542;28;20713;-57
2022/11/20 02:31:30;;;;;;;42.63;29.63;;;;;;;13.56;100.00;98685.72;5072768;28;20685;-57
2022/11/20 02:33:57;;;;;;;48.50;30.30;;;;;;;13.62;100.00;98680.19;5072918;28;20204;-57
2022/11/20 02:36:27;;;;;;;46.43;30.63;;;;;;;13.58;100.00;98684.72;5072615;28;20227;-57
2022/11/20 02:38:54;;;;;;;44.37;30.10;;;;;;;13.71;100.00;98684.88;5072713;28;20207;-57
2022/11/20 02:41:31;;;;;;;43.97;31.10;;;;;;;13.63;100.00;98669.66;5072417;28;20196;-57
2022/11/20 02:43:57;;;;;;;49.40;30.53;;;;;;;13.54;100.00;98667.56;5072466;28;20211;-57
2022/11/20 02:46:24;;;;;;;44.80;30.53;;;;;;;13.66;100.00;98676.47;5072296;28;20215;-56
2022/11/20 02:48:51;;;;;;;46.33;30.33;;;;;;;13.49;100.00;98659.16;5072550;28;20561;-57
2022/11/20 02:51:18;;;;;;;47.57;30.87;;;;;;;13.44;100.00;98684.59;5072533;28;20196;-57
2022/11/20 02:53:45;;;;;;;51.00;31.33;;;;;;;13.38;100.00;98692.75;5072442;28;20200;-57
2022/11/20 02:56:12;;;;;;;50.43;30.90;;;;;;;13.41;100.00;98687.41;5072024;28;20203;-57
2022/11/20 02:58:40;;;;;;;45.73;30.30;;;;;;;13.47;100.00;98696.63;5072057;28;20227;-57
2022/11/20 03:01:07;;;;;;;40.87;28.93;;;;;;;13.51;100.00;98691.19;5072052;28;20196;-56
2022/11/20 03:03:34;;;;;;;46.00;29.10;;;;;;;13.52;100.00;98682.44;5071940;28;20204;-57
2022/11/20 03:06:01;;;;;;;44.93;28.90;;;;;;;13.52;100.00;98673.78;5072043;28;20552;-57
2022/11/20 03:08:28;;;;;;;44.70;26.77;;;;;;;13.56;100.00;98670.91;5071122;28;20689;-57
2022/11/20 03:10:55;;;;;;;39.37;26.13;;;;;;;13.65;100.00;98680.88;5071996;28;20204;-57
2022/11/20 03:13:22;;;;;;;43.93;26.50;;;;;;;13.64;100.00;98692.22;5051817;28;20296;-57
2022/11/20 03:15:50;;;;;;;37.77;26.80;;;;;;;13.48;100.00;98688.75;5051971;28;20192;-58
2022/11/20 03:18:17;;;;;;;41.67;26.43;;;;;;;13.48;100.00;98691.34;5071133;28;20227;-57
2022/11/20 03:20:44;;;;;;;38.37;26.40;;;;;;;13.52;100.00;98705.06;5072114;28;20208;-57
2022/11/20 03:23:10;;;;;;;35.70;25.17;;;;;;;13.52;100.00;98679.00;5071447;28;20242;-58
2022/11/20 03:25:37;;;;;;;37.63;24.63;;;;;;;13.45;100.00;98674.09;5071734;28;20203;-57
2022/11/20 03:28:04;;;;;;;46.67;25.70;;;;;;;13.45;100.00;98662.81;5071721;28;20216;-57
2022/11/20 03:30:31;;;;;;;34.30;24.77;;;;;;;13.44;100.00;98661.16;5071633;28;20206;-54
2022/11/20 03:33:00;;;;;;;34.63;25.07;;;;;;;13.50;100.00;98663.44;5071490;28;20254;-54
2022/11/20 03:35:26;;;;;;;34.60;24.43;;;;;;;13.45;100.00;98666.28;5071424;28;20261;-54
2022/11/20 03:37:53;;;;;;;38.87;24.30;;;;;;;13.58;100.00;98663.84;5071272;28;20587;-53
2022/11/20 03:40:20;;;;;;;37.60;23.27;;;;;;;13.60;100.00;98675.03;5069049;28;20679;-54
2022/11/20 03:42:47;;;;;;;34.83;21.63;;;;;;;13.60;100.00;98685.47;5065313;28;20224;-54
2022/11/20 03:45:15;;;;;;;34.57;23.37;;;;;;;13.55;100.00;98684.88;5070873;28;20224;-53
2022/11/20 03:47:42;;;;;;;35.20;22.97;;;;;;;13.45;100.00;98681.91;5070681;28;20224;-56
2022/11/20 03:50:12;;;;;;;35.23;21.93;;;;;;;13.47;100.00;98681.00;5070848;28;20289;-53
2022/11/20 03:52:40;;;;;;;29.43;21.27;;;;;;;13.50;100.00;98686.06;5070674;28;20227;-57
2022/11/20 03:55:07;;;;;;;33.97;22.43;;;;;;;13.46;100.00;98682.75;5070649;28;20307;-56
2022/11/20 03:57:34;;;;;;;31.03;20.57;;;;;;;13.44;100.00;98671.56;5070760;28;20231;-56
2022/11/20 04:00:01;;;;;;;31.10;19.57;;;;;;;13.43;100.00;98681.16;5070918;28;20747;-56
2022/11/20 04:02:28;;;;;;;36.57;20.87;;;;;;;13.46;100.00;98674.94;5070403;28;20226;-56
2022/11/20 04:04:55;;;;;;;29.97;20.27;;;;;;;13.46;100.00;98674.94;5070487;28;20223;-56
2022/11/20 04:07:23;;;;;;;28.47;18.47;;;;;;;13.49;100.00;98687.81;5070325;28;20757;-56
2022/11/20 04:09:50;;;;;;;28.83;16.80;;;;;;;13.56;100.00;98686.56;5070292;28;20230;-57
2022/11/20 04:12:17;;;;;;;25.97;17.70;;;;;;;13.60;100.00;98682.88;5070482;28;20219;-57
2022/11/20 04:14:44;;;;;;;24.80;16.13;;;;;;;13.63;100.00;98689.69;5070374;28;20235;-57
2022/11/20 04:17:11;;;;;;;24.63;15.90;;;;;;;13.61;100.00;98689.78;5070265;28;20689;-54
2022/11/20 04:19:38;;;;;;;27.83;17.53;;;;;;;13.53;100.00;98691.13;5069263;28;20267;-53
2022/11/20 04:22:05;;;;;;;22.10;13.93;;;;;;;13.63;100.00;98693.13;5070359;28;20737;-53
2022/11/20 04:24:33;;;;;;;31.30;16.33;;;;;;;13.68;100.00;98685.03;5058550;28;20220;-52
2022/11/20 04:27:00;;;;;;;25.37;16.37;;;;;;;13.71;100.00;98697.94;5061497;28;20703;-54
2022/11/20 04:29:27;;;;;;;24.20;14.57;;;;;;;13.70;100.00;98694.47;5060207;28;20231;-53
2022/11/20 04:31:54;;;;;;;25.43;15.27;;;;;;;13.72;100.00;98691.78;5050255;28;20584;-54
2022/11/20 04:34:21;;;;;;;23.80;14.23;;;;;;;13.71;100.00;98690.94;5049722;28;20593;-54
2022/11/20 04:36:47;;;;;;;21.17;12.20;;;;;;;13.76;100.00;98688.94;5049748;28;20315;-53
2022/11/20 04:39:16;;;;;;;23.03;12.10;;;;;;;13.78;100.00;98689.66;5049221;28;20221;-54
2022/11/20 04:41:45;;;;;;;20.63;11.23;;;;;;;13.81;100.00;98678.25;5049366;28;20333;-53
2022/11/20 04:44:12;;;;;;;19.47;10.00;;;;;;;13.72;100.00;98644.84;5060947;28;20223;-57
2022/11/20 04:46:41;;;;;;;19.20;9.07;;;;;;;14.07;100.00;98692.44;5069210;28;20257;-57
2022/11/20 04:49:08;;;;;;;24.17;11.03;;;;;;;13.92;100.00;98682.84;5069121;28;20228;-57
2022/11/20 04:51:35;;;;;;;17.90;9.00;;;;;;;14.08;100.00;98694.13;5069302;28;20226;-59
2022/11/20 04:54:02;;;;;;;19.07;8.80;;;;;;;14.18;100.00;98675.25;5068616;28;20224;-57
2022/11/20 04:56:29;;;;;;;17.63;8.03;;;;;;;14.16;100.00;98679.72;5069101;28;20220;-57
2022/11/20 04:59:01;;;;;;;19.20;7.97;;;;;;;14.20;100.00;98693.44;5069163;28;20711;-58
2022/11/20 05:01:28;;;;;;;15.63;7.80;;;;;;;14.25;100.00;98691.41;5069031;28;20220;-54
2022/11/20 05:03:55;;;;;;;15.20;7.37;;;;;;;14.20;100.00;98667.34;5069458;28;20227;-54
2022/11/20 05:06:22;;;;;;;14.80;7.47;;;;;;;14.45;100.00;98669.41;5069176;28;20219;-53
2022/11/20 05:08:49;;;;;;;16.60;7.47;;;;;;;14.58;100.00;98672.13;5068388;28;20716;-53
2022/11/20 05:11:19;;;;;;;17.20;10.30;;;;;;;14.60;100.00;98675.50;5068907;28;20220;-54
2022/11/20 05:13:46;;;;;;;13.80;7.93;;;;;;;14.66;100.00;98696.06;5048194;28;20884;-53
2022/11/20 05:16:16;;;;;;;11.83;6.80;;;;;;;14.68;100.00;98704.63;5048880;28;20201;-54
2022/11/20 05:18:43;;;;;;;12.17;6.43;;;;;;;14.70;100.00;98711.44;5049099;28;20203;-53
2022/11/20 05:21:11;;;;;;;17.17;7.23;;;;;;;14.69;100.00;98701.94;5049361;28;20220;-53
2022/11/20 05:23:39;;;;;;;17.67;8.40;;;;;;;14.62;100.00;98705.00;5049092;28;20204;-54
2022/11/20 05:26:07;;;;;;;10.67;8.13;;;;;;;14.57;100.00;98702.63;5048858;28;20196;-53
2022/11/20 05:28:34;;;;;;;13.23;7.57;;;;;;;14.51;100.00;98713.44;5049553;28;20788;-53
2022/11/20 05:31:09;;;;;;;24.87;7.67;;;;;;;14.59;100.00;98694.72;5051600;28;20193;-57
2022/11/20 05:33:40;;;;;;;17.80;7.83;;;;;;;14.56;100.00;98693.13;5053776;28;20192;-54
2022/11/20 05:36:08;;;;;;;15.23;8.67;;;;;;;14.56;100.00;98695.72;5054114;28;20638;-57
2022/11/20 05:38:35;;;;;;;12.97;8.20;;;;;;;14.58;100.00;98700.88;5053652;28;20304;-57
2022/11/20 05:41:06;;;;;;;20.40;8.60;;;;;;;14.55;100.00;98699.28;5054123;28;20584;-58
2022/11/20 05:43:35;;;;;;;14.80;8.10;;;;;;;14.60;100.00;98693.78;5053610;28;20196;-58
2022/11/20 05:46:01;;;;;;;15.67;8.47;;;;;;;14.61;100.00;98693.72;5053868;28;20201;-57
2022/11/20 05:48:29;;;;;;;9.93;8.40;;;;;;;14.50;100.00;98685.66;5053457;28;20224;-58
2022/11/20 05:50:57;;;;;;;13.53;7.93;;;;;;;14.61;100.00;98695.47;5053875;28;20189;-58
2022/11/20 05:53:24;;;;;;;13.53;8.70;;;;;;;14.59;100.00;98699.94;5053517;28;20992;-57
2022/11/20 05:55:58;;;;;;;14.67;9.07;;;;;;;14.55;100.00;98699.28;5053503;28;20203;-57
2022/11/20 05:58:25;;;;;;;15.27;8.97;;;;;;;14.69;100.00;98714.13;5060788;28;20287;-57
2022/11/20 06:00:52;;;;;;;15.53;9.30;;;;;;;14.65;100.00;98712.66;5072221;28;20199;-57
2022/11/20 06:03:19;;;;;;;16.47;11.00;;;;;;;14.72;100.00;98700.91;5071814;28;20213;-58
2022/11/20 06:05:45;;;;;;;21.43;11.97;;;;;;;14.77;100.00;98714.56;5072149;28;20207;-57
2022/11/20 06:08:14;;;;;;;16.33;11.20;;;;;;;14.64;100.00;98731.88;5071310;28;20226;-57
2022/11/20 06:10:41;;;;;;;20.50;11.07;;;;;;;14.53;100.00;98711.59;5068462;28;20580;-57
2022/11/20 06:13:08;;;;;;;21.03;13.40;;;;;;;14.56;100.00;98708.78;5071555;28;20210;-58
2022/11/20 06:15:34;;;;;;;19.00;11.03;;;;;;;14.49;100.00;98710.06;5070952;28;20200;-57
2022/11/20 06:18:01;;;;;;;24.97;12.00;;;;;;;14.50;100.00;98719.59;5070878;28;20199;-57
2022/11/20 06:20:28;;;;;;;21.17;11.50;;;;;;;14.44;100.00;98710.38;5070956;28;20218;-57
2022/11/20 06:22:55;;;;;;;16.47;10.87;;;;;;;14.38;100.00;98707.22;5072495;28;20661;-56
2022/11/20 06:25:23;;;;;;;17.20;9.63;;;;;;;14.44;100.00;98710.38;5062682;28;20604;-57
2022/11/20 06:27:50;;;;;;;15.33;7.77;;;;;;;14.69;100.00;98740.25;5071355;28;20231;-57
2022/11/20 06:30:17;;;;;;;11.00;8.23;;;;;;;14.81;100.00;98729.09;5071187;28;20314;-57
2022/11/20 06:32:44;;;;;;;11.17;7.93;;;;;;;14.80;100.00;98741.31;5071354;28;20614;-58
2022/11/20 06:35:11;;;;;;;12.63;8.50;;;;;;;14.79;100.00;98746.63;5071087;28;20303;-58
2022/11/20 06:37:38;;;;;;;20.73;9.83;;;;;;;14.81;100.00;98735.16;5085901;28;20602;-58
2022/11/20 06:40:06;;;;;;;16.30;9.73;;;;;;;14.84;100.00;98737.63;5090625;28;20206;-59
2022/11/20 06:42:35;;;;;;;20.40;9.30;;;;;;;14.99;100.00;98751.56;5090565;28;20586;-59
2022/11/20 06:45:02;;;;;;;12.37;8.47;;;;;;;15.08;100.00;98745.78;5092303;28;20191;-58
2022/11/20 06:47:28;;;;;;;11.60;8.30;;;;;;;15.18;100.00;98754.75;5091951;28;20203;-59
2022/11/20 06:49:55;;;;;;;15.20;8.67;;;;;;;15.28;100.00;98741.97;5091943;28;20215;-57
2022/11/20 06:52:22;;;;;;;15.17;8.33;;;;;;;15.27;100.00;98746.34;5084866;28;20203;-58
2022/11/20 06:54:49;;;;;;;15.23;9.17;;;;;;;15.31;100.00;98731.34;5071632;28;20609;-58
2022/11/20 06:57:16;;;;;;;17.80;9.17;;;;;;;15.34;100.00;98748.63;5071318;28;20592;-54
2022/11/20 06:59:44;;;;;;;16.97;8.43;;;;;;;15.39;100.00;98751.78;5068604;28;20207;-54
2022/11/20 07:02:12;;;;;;;16.93;9.00;;;;;;;15.40;100.00;98758.69;5071473;28;20681;-54
2022/11/20 07:04:39;;;;;;;16.07;8.60;;;;;;;15.41;100.00;98760.38;5068236;28;20200;-53
2022/11/20 07:07:07;;;;;;;20.53;10.23;;;;;;;15.46;100.00;98745.25;5070714;28;20239;-53
2022/11/20 07:09:34;;;;;;;10.43;8.60;;;;;;;15.47;100.00;98742.53;5070925;28;20224;-53
2022/11/20 07:12:01;;;;;;;16.73;9.87;;;;;;;15.56;100.00;98738.56;5071340;28;20587;-54
2022/11/20 07:14:28;;;;;;;16.77;9.27;;;;;;;15.60;100.00;98747.88;5071254;28;20208;-54
2022/11/20 07:16:57;;;;;;;10.50;8.10;;;;;;;15.64;100.00;98748.53;5070996;28;20219;-53
2022/11/20 07:19:23;;;;;;;16.63;9.23;;;;;;;15.65;100.00;98765.94;5070807;28;20206;-54
2022/11/20 07:21:50;;;;;;;13.60;8.97;;;;;;;15.69;100.00;98768.25;5069484;28;20203;-54
2022/11/20 07:24:17;;;;;;;11.80;8.20;;;;;;;15.74;100.00;98760.97;5069534;28;20200;-58
2022/11/20 07:26:47;;;;;;;18.40;11.77;;;;;;;15.74;100.00;98740.03;5070700;28;20203;-57
2022/11/20 07:29:14;;;;;;;14.93;9.93;;;;;;;15.66;100.00;98739.69;5070774;28;20224;-56
2022/11/20 07:31:40;;;;;;;13.97;8.33;;;;;;;15.63;100.00;98746.88;5070754;28;20196;-57
2022/11/20 07:34:09;;;;;;;13.43;8.47;;;;;;;15.65;100.00;98766.78;5070904;28;20218;-56
2022/11/20 07:36:36;;;;;;;18.37;8.10;;;;;;;15.64;100.00;98775.56;5070808;28;20192;-57
2022/11/20 07:39:02;;;;;;;14.33;7.80;;;;;;;15.80;100.00;98765.81;5070936;28;20203;-56
2022/11/20 07:41:29;;;;;;;13.37;7.67;;;;;;;15.79;100.00;98773.78;5070700;28;20264;-57
2022/11/20 07:43:56;;;;;;;11.00;8.00;;;;;;;15.79;100.00;98779.84;5070703;28;20192;-57
2022/11/20 07:46:23;;;;;;;12.83;8.57;;;;;;;15.86;100.00;98785.53;5070806;28;20592;-57
2022/11/20 07:48:50;;;;;;;44.93;22.90;;;;;;;15.65;100.00;98766.78;5070393;28;20224;-56
2022/11/20 07:51:18;;;;;;;38.53;19.17;;;;;;;15.68;100.00;98774.44;5070597;28;20207;-56
2022/11/20 07:53:45;;;;;;;38.90;16.40;;;;;;;15.71;100.00;98781.22;5070454;28;20200;-56
2022/11/20 07:56:13;;;;;;;26.53;15.80;;;;;;;15.70;100.00;98783.00;5070320;28;20198;-56
2022/11/20 07:58:41;;;;;;;41.67;26.60;;;;;;;15.70;100.00;98763.84;5070529;28;20581;-56
2022/11/20 08:01:08;;;;;;;27.17;16.87;;;;;;;15.70;100.00;98761.25;5070380;28;20208;-56
2022/11/20 08:03:37;;;;;;;22.03;14.80;;;;;;;15.71;100.00;98761.16;5070347;28;20210;-57
2022/11/20 08:06:05;;;;;;;23.57;15.70;;;;;;;15.72;100.00;98756.75;5070587;28;20595;-57
2022/11/20 08:08:33;;;;;;;28.90;20.60;;;;;;;15.74;100.00;98755.72;5070182;28;20689;-56
2022/11/20 08:14:11;;;;;;;21.37;14.60;;;;;;;15.75;100.00;98762.66;5070095;28;20278;-57
2022/11/20 08:16:34;;;;;;;22.03;14.43;;;;;;;15.87;100.00;98767.13;5070225;28;20207;-57
2022/11/20 08:19:01;;;;;;;25.07;14.17;;;;;;;16.07;100.00;98767.66;5070006;28;20200;-57
2022/11/20 08:21:28;;;;;;;24.50;17.10;;;;;;;16.03;100.00;98756.50;5069910;28;20192;-58
2022/11/20 08:23:56;;;;;;;25.00;16.37;;;;;;;16.06;100.00;98750.25;5069870;28;20286;-57
2022/11/20 08:26:23;;;;;;;19.73;14.60;;;;;;;16.09;100.00;98758.75;5070001;28;20204;-56
2022/11/20 08:28:50;;;;;;;21.33;14.40;;;;;;;16.11;100.00;98761.28;5069875;28;20277;-57
2022/11/20 08:31:17;;;;;;;20.17;13.63;;;;;;;16.14;100.00;98763.72;5069709;28;20202;-57
2022/11/20 08:33:44;;;;;;;25.73;14.20;;;;;;;16.39;100.00;98762.97;5070107;28;20322;-57
2022/11/20 08:36:11;;;;;;;21.93;13.40;;;;;;;16.61;100.00;98763.25;5070006;28;20721;-57
2022/11/20 08:38:38;;;;;;;25.93;16.20;;;;;;;16.68;100.00;98754.94;5069887;28;20195;-58
2022/11/20 08:41:25;;;;;;;18.17;13.30;;;;;;;16.86;100.00;98742.41;5069839;28;20202;-57
2022/11/20 08:43:57;;;;;;;21.53;14.70;;;;;;;17.11;100.00;98738.13;5070112;28;20195;-55
2022/11/20 08:46:25;;;;;;;19.80;14.27;;;;;;;17.24;100.00;98742.44;5069452;28;20200;-57
2022/11/20 08:48:52;;;;;;;22.63;14.32;;;;;;;17.39;100.00;98733.50;5069834;28;20599;-57
2022/11/20 08:51:20;;;;;;;17.70;13.95;;;;;;;17.56;100.00;98739.38;5069586;28;20196;-57
2022/11/20 08:53:48;;;;;;;31.95;15.55;;;;;;;17.80;100.00;98750.81;5069460;28;20192;-57
2022/11/20 08:56:17;;;;;;;24.05;15.65;;;;;;;17.84;100.00;98757.53;5069147;28;20741;-57
2022/11/20 08:58:44;;;;;;;29.48;22.63;;;;;;;17.97;100.00;98749.63;5068862;28;20269;-57
2022/11/20 09:01:12;;;;;;;38.17;25.92;;;;;;;18.16;100.00;98749.16;5068855;28;20223;-57
2022/11/20 09:03:39;;;;;;;37.15;24.63;;;;;;;18.17;100.00;98758.72;5068543;28;20256;-57
2022/11/20 09:06:08;;;;;;;31.58;21.77;;;;;;;18.26;100.00;98747.53;5069182;28;20591;-55
2022/11/20 09:08:35;;;;;;;20.58;15.70;;;;;;;18.34;100.00;98739.94;5068018;28;20242;-57
2022/11/20 09:11:03;;;;;;;12.38;9.88;;;;;;;18.46;100.00;98742.50;5068296;28;20283;-56
2022/11/20 09:13:32;;;;;;;12.73;9.20;;;;;;;18.59;100.00;98741.66;5069066;28;20797;-59
2022/11/20 09:16:01;;;;;;;14.23;7.70;;;;;;;18.90;100.00;98751.56;5062441;28;20227;-56
2022/11/20 09:18:30;;;;;;;13.32;7.32;;;;;;;19.18;100.00;98743.28;5048942;28;20614;-58
2022/11/20 09:20:58;;;;;;;11.43;6.80;;;;;;;19.31;100.00;98742.31;5049059;28;20220;-58
2022/11/20 09:23:26;;;;;;;6.90;5.85;;;;;;;19.36;100.00;98734.91;5049776;28;20717;-58
2022/11/20 09:25:55;;;;;;;7.65;5.40;;;;;;;19.34;100.00;98727.13;5088701;28;20676;-60
2022/11/20 09:28:22;;;;;;;7.03;5.50;;;;;;;19.23;100.00;98706.91;5077733;28;20220;-60
2022/11/20 09:30:50;;;;;;;9.38;4.95;;;;;;;19.32;100.00;98710.63;5048780;28;20228;-60
2022/11/20 09:33:17;;;;;;;8.90;5.63;;;;;;;19.39;100.00;98713.63;5060262;28;20300;-59
2022/11/20 09:35:45;;;;;;;13.15;6.53;;;;;;;19.50;100.00;98706.59;5086917;28;20199;-60
2022/11/20 09:38:12;;;;;;;10.95;5.78;;;;;;;19.63;100.00;98710.91;5088551;28;20206;-60
2022/11/20 09:40:44;;;;;;;10.15;5.78;;;;;;;19.74;100.00;98703.00;5089035;28;20199;-59
2022/11/20 09:43:18;;;;;;;12.18;5.88;;;;;;;19.89;100.00;98696.50;5089353;28;20208;-59
2022/11/20 09:45:57;;;;;;;9.98;5.68;;;;;;;20.11;100.00;98690.34;5089052;28;20286;-58
2022/11/20 09:48:59;;;;;;;10.15;6.43;;;;;;;20.37;100.00;98680.34;5089094;28;20729;-59
2022/11/20 09:51:36;;;;;;;12.98;8.32;;;;;;;20.62;100.00;98674.72;5086777;28;20199;-59
2022/11/20 09:54:14;;;;;;;12.40;8.63;;;;;;;20.70;100.00;98672.28;5089146;28;20220;-59
2022/11/20 09:56:45;;;;;;;17.52;8.05;;;;;;;20.80;100.00;98662.63;5089401;28;20201;-59
2022/11/20 09:59:28;;;;;;;13.05;6.63;;;;;;;20.83;100.00;98670.28;5089235;28;20188;-60
2022/11/20 10:01:57;;;;;;;15.68;7.95;;;;;;;20.88;100.00;98669.91;5089069;28;20199;-59
2022/11/20 10:04:25;;;;;;;14.10;7.40;;;;;;;21.00;100.00;98679.41;5089197;28;20192;-59
2022/11/20 10:06:58;;;;;;;13.25;7.20;;;;;;;21.11;100.00;98670.56;5088729;28;20200;-59
2022/11/20 10:09:32;;;;;;;14.27;6.30;;;;;;;21.22;100.00;98686.41;5088929;28;20227;-56
2022/11/20 10:12:13;;;;;;;15.48;7.05;;;;;;;21.31;100.00;98686.44;5089207;28;20202;-55
2022/11/20 10:14:54;;;;;;;11.00;7.57;;;;;;;21.35;100.00;98681.69;5089268;28;20223;-55
2022/11/20 10:17:33;;;;;;;15.70;7.70;;;;;;;21.25;100.00;98667.63;5089553;28;20209;-55
2022/11/20 10:20:15;;;;;;;11.50;7.57;;;;;;;21.18;100.00;98663.81;5092399;28;20195;-53
2022/11/20 10:22:55;;;;;;;13.45;7.95;;;;;;;20.98;100.00;98637.34;5092667;28;20285;-55
2022/11/20 10:25:27;;;;;;;13.38;8.95;;;;;;;21.12;100.00;98659.06;5092565;28;20286;-54
2022/11/20 10:28:25;;;;;;;14.38;7.93;;;;;;;21.02;100.00;98661.66;5092610;28;20191;-55
2022/11/20 10:30:58;;;;;;;16.48;7.75;;;;;;;20.97;100.00;98656.78;5091667;28;20230;-55
2022/11/20 10:33:30;;;;;;;15.80;7.55;;;;;;;20.88;100.00;98644.34;5092660;28;20688;-55
2022/11/20 10:36:07;;;;;;;13.73;7.53;;;;;;;20.88;100.00;98644.34;5092335;28;20199;-57
2022/11/20 10:38:39;;;;;;;16.15;7.88;;;;;;;20.87;100.00;98647.97;5051310;28;20235;-58
2022/11/20 10:41:26;;;;;;;9.10;7.30;;;;;;;20.86;100.00;98646.31;5051788;28;20220;-58
2022/11/20 10:44:01;;;;;;;12.98;7.50;;;;;;;20.82;100.00;98642.25;5052009;28;20622;-58
2022/11/20 10:46:41;;;;;;;15.27;7.38;;;;;;;20.78;100.00;98632.91;5051623;28;20220;-58
2022/11/20 10:49:15;;;;;;;11.30;6.57;;;;;;;20.72;100.00;98622.91;5052913;28;20232;-58
2022/11/20 10:51:53;;;;;;;13.98;7.00;;;;;;;20.75;100.00;98622.66;5091623;28;20195;-58
2022/11/20 10:54:26;;;;;;;21.13;7.03;;;;;;;20.69;100.00;98622.31;5091241;28;20438;-59
2022/11/20 10:56:56;;;;;;;14.98;6.93;;;;;;;20.63;100.00;98616.59;5091885;28;20202;-58
2022/11/20 10:59:39;;;;;;;14.55;7.82;;;;;;;20.57;100.00;98614.47;5092343;28;20191;-58
2022/11/20 11:02:17;;;;;;;14.43;8.93;;;;;;;20.64;100.00;98617.44;5091771;28;20202;-55
2022/11/20 11:04:47;;;;;;;24.25;13.23;;;;;;;20.51;100.00;98622.06;5091887;28;20686;-55
2022/11/20 11:07:17;;;;;;;12.38;9.23;;;;;;;20.54;100.00;98616.53;5091654;28;20233;-55
2022/11/20 11:09:49;;;;;;;31.25;17.05;;;;;;;20.57;100.00;98619.75;5091662;28;20248;-56
2022/11/20 11:12:16;;;;;;;36.50;15.57;;;;;;;20.51;100.00;98616.78;5091652;28;20192;-54
2022/11/20 11:14:49;;;;;;;34.67;15.88;;;;;;;20.48;100.00;98606.50;5091398;28;20195;-54
2022/11/20 11:17:30;;;;;;;30.48;16.88;;;;;;;20.44;100.00;98597.16;5074682;28;20204;-55
2022/11/20 11:20:08;;;;;;;37.45;20.98;;;;;;;20.43;100.00;98592.88;5056005;28;20247;-55
2022/11/20 11:22:44;;;;;;;26.33;11.63;;;;;;;20.45;100.00;98577.75;5051197;28;20618;-55
2022/11/20 11:25:20;;;;;;;26.85;13.35;;;;;;;20.40;100.00;98578.16;5068174;28;20204;-56
2022/11/20 11:27:48;;;;;;;13.85;8.40;;;;;;;20.39;100.00;98579.13;5071326;28;20209;-56
2022/11/20 11:30:17;;;;;;;33.55;20.77;;;;;;;20.44;100.00;98582.19;5070840;28;20231;-55